createdAt,value
2022-12-25T00:08:25.649Z,5.8
2022-12-25T00:12:29.111Z,6.1
2022-12-25T00:14:39.671Z,6.1
2022-12-25T00:18:43.178Z,5.7
2022-12-25T00:27:42.826Z,5.7
2022-12-25T00:29:44.542Z,5.8
2022-12-25T00:31:46.408Z,6
2022-12-25T00:33:50.763Z,6.1
2022-12-25T00:35:52.497Z,6.1
2022-12-25T00:39:58.677Z,6.2
2022-12-25T00:42:00.425Z,6.3
2022-12-25T00:44:02.180Z,6.4
2022-12-25T00:46:06.702Z,6.5
2022-12-25T00:50:10.148Z,6.7
2022-12-25T00:52:20.721Z,6.7
2022-12-25T00:56:24.247Z,6.8
2022-12-25T01:02:38.615Z,6.9
2022-12-25T01:04:49.005Z,6.8
2022-12-25T01:11:03.149Z,7
2022-12-25T01:15:06.663Z,7.2
2022-12-25T01:17:11.127Z,7.2
2022-12-25T01:19:12.904Z,7.3
2022-12-25T01:21:14.680Z,7.2
2022-12-25T01:23:19.148Z,7.4
2022-12-25T01:25:20.933Z,7.4
2022-12-25T01:27:22.708Z,7.6
2022-12-25T01:29:27.179Z,7.7
2022-12-25T01:31:29.048Z,7.8
2022-12-25T01:33:30.785Z,7.9
2022-12-25T01:35:35.246Z,8
2022-12-25T01:37:37.040Z,7.9
2022-12-25T01:41:43.345Z,8.1
2022-12-25T01:43:45.143Z,8.2
2022-12-25T01:45:46.974Z,8
2022-12-25T01:47:57.548Z,8
2022-12-25T01:49:59.306Z,8
2022-12-25T01:59:09.912Z,8.1
2022-12-25T02:03:22.425Z,8.2
2022-12-25T02:05:24.113Z,8.2
2022-12-25T02:07:25.893Z,8
2022-12-25T02:09:36.539Z,8.2
2022-12-25T02:11:38.390Z,8.3
2022-12-25T02:13:40.189Z,8.4
2022-12-25T02:15:50.855Z,8.4
2022-12-25T02:17:52.665Z,8.3
2022-12-25T02:19:54.507Z,8.5
2022-12-25T02:21:59.226Z,8.5
2022-12-25T02:26:02.546Z,8.3
2022-12-25T02:28:06.919Z,8.3
2022-12-25T02:30:08.719Z,8.5
2022-12-25T02:32:10.621Z,8.4
2022-12-25T02:34:21.163Z,8.3
2022-12-25T02:36:22.890Z,8.1
2022-12-25T02:38:24.714Z,8.1
2022-12-25T02:40:29.254Z,8.3
2022-12-25T02:42:31.092Z,8.2
2022-12-25T02:44:32.900Z,8
2022-12-25T02:56:31.974Z,8.2
2022-12-25T03:00:35.591Z,7.8
2022-12-25T03:05:47.268Z,7.8
2022-12-25T03:07:49.078Z,7.8
2022-12-25T03:09:50.915Z,7.9
2022-12-25T03:23:42.219Z,7.9
2022-12-25T03:25:44.037Z,8
2022-12-25T03:27:48.441Z,8
2022-12-25T03:29:50.306Z,8
2022-12-25T03:36:57.205Z,7.9
2022-12-25T03:41:00.861Z,7.8
2022-12-25T03:50:19.140Z,8.5
2022-12-25T03:52:29.732Z,8.5
2022-12-25T03:54:31.574Z,8.3
2022-12-25T03:56:33.524Z,8.5
2022-12-25T04:02:47.318Z,8.6
2022-12-25T04:04:49.003Z,8.4
2022-12-25T04:06:50.829Z,8.4
2022-12-25T04:17:49.872Z,8.3
2022-12-25T04:19:51.693Z,8.4
2022-12-25T04:21:56.226Z,8.5
2022-12-25T04:23:58.063Z,8.6
2022-12-25T04:25:59.881Z,8.4
2022-12-25T04:28:04.415Z,8.4
2022-12-25T04:36:14.421Z,8.5
2022-12-25T04:38:16.239Z,8.6
2022-12-25T04:47:16.306Z,8.6
2022-12-25T04:57:33.876Z,8.6
2022-12-25T05:09:23.797Z,8.5
2022-12-25T05:13:27.358Z,8.2
2022-12-25T05:19:41.389Z,8.1
2022-12-25T05:21:45.825Z,8.1
2022-12-25T05:23:47.541Z,8
2022-12-25T05:25:49.398Z,8
2022-12-25T05:27:54.285Z,8
2022-12-25T05:36:03.885Z,7.9
2022-12-25T05:38:05.699Z,8
2022-12-25T05:40:10.205Z,7.8
2022-12-25T05:42:12.045Z,7.8
2022-12-25T05:51:28.037Z,7.8
2022-12-25T06:00:42.947Z,7.7
2022-12-25T06:02:44.953Z,7.6
2022-12-25T06:08:58.703Z,7.6
2022-12-25T06:11:00.374Z,7.6
2022-12-25T06:13:02.245Z,7.4
2022-12-25T06:19:16.527Z,7.7
2022-12-25T06:31:08.998Z,7.5
2022-12-25T06:35:12.458Z,7.4
2022-12-25T06:37:16.946Z,7.4
2022-12-25T06:39:18.733Z,7.5
2022-12-25T06:41:20.558Z,7.3
2022-12-25T06:43:25.043Z,7.3
2022-12-25T06:45:26.950Z,7.1
2022-12-25T06:47:28.663Z,7.1
2022-12-25T06:49:39.247Z,7.2
2022-12-25T07:07:25.446Z,7
2022-12-25T07:09:27.243Z,6.9
2022-12-25T07:13:39.598Z,7
2022-12-25T07:15:41.377Z,7.1
2022-12-25T07:17:51.967Z,7
2022-12-25T07:19:53.686Z,7
2022-12-25T07:21:55.486Z,7.1
2022-12-25T07:26:59.961Z,7.1
2022-12-25T07:31:03.556Z,7.2
2022-12-25T07:33:08.030Z,7.1
2022-12-25T07:35:09.817Z,7.2
2022-12-25T07:37:11.605Z,7.2
2022-12-25T07:46:11.664Z,7.2
2022-12-25T07:48:16.447Z,7.2
2022-12-25T07:50:15.194Z,7.2
2022-12-25T07:52:25.821Z,7.2
2022-12-25T07:54:27.525Z,7.2
2022-12-25T07:56:29.348Z,7.3
2022-12-25T08:07:57.084Z,7.4
2022-12-25T08:11:56.238Z,7.3
2022-12-25T08:25:23.494Z,7.4
2022-12-25T08:27:25.296Z,7.4
2022-12-25T08:29:29.803Z,7.4
2022-12-25T08:33:33.415Z,7.5
2022-12-25T08:35:37.911Z,7.5
2022-12-25T08:37:39.755Z,7.5
2022-12-25T08:39:41.540Z,7.5
2022-12-25T08:46:53.372Z,7.5
2022-12-25T08:48:55.202Z,7.5
2022-12-25T08:57:52.273Z,7.5
2022-12-25T08:59:54.013Z,7.5
2022-12-25T09:01:55.823Z,7.6
2022-12-25T09:04:00.117Z,7.6
2022-12-25T09:06:01.804Z,7.6
2022-12-25T09:08:03.600Z,7.7
2022-12-25T09:22:00.737Z,7.8
2022-12-25T09:33:15.329Z,7.8
2022-12-25T09:42:24.617Z,7.9
2022-12-25T09:47:31.137Z,7.9
2022-12-25T09:51:34.759Z,7.9
2022-12-25T09:53:45.423Z,7.9
2022-12-25T09:57:48.959Z,7.9
2022-12-25T10:02:54.735Z,7.9
2022-12-25T10:04:56.348Z,7.9
2022-12-25T10:06:58.166Z,7.9
2022-12-25T10:28:01.772Z,7.9
2022-12-25T10:30:03.608Z,8
2022-12-25T10:32:05.473Z,7.9
2022-12-25T10:34:09.953Z,7.9
2022-12-25T10:36:11.770Z,7.9
2022-12-25T10:38:13.567Z,7.9
2022-12-25T10:40:18.107Z,7.9
2022-12-25T10:42:19.837Z,7.9
2022-12-25T10:44:21.481Z,7.9
2022-12-25T10:46:25.929Z,7.9
2022-12-25T10:48:27.587Z,7.9
2022-12-25T10:50:29.442Z,7.9
2022-12-25T10:59:26.581Z,7.9
2022-12-25T11:03:30.219Z,8
2022-12-25T11:05:40.529Z,8
2022-12-25T11:07:42.283Z,8
2022-12-25T11:09:44.047Z,8
2022-12-25T11:23:42.536Z,8
2022-12-25T11:25:44.270Z,8
2022-12-25T11:27:51.964Z,8
2022-12-25T11:29:50.443Z,8
2022-12-25T11:31:52.245Z,8
2022-12-25T11:33:56.559Z,8
2022-12-25T11:38:00.009Z,8
2022-12-25T11:40:04.409Z,8.1
2022-12-25T11:42:06.107Z,8
2022-12-25T11:44:07.832Z,8.1
2022-12-25T11:51:20.896Z,8.1
2022-12-25T11:53:22.624Z,8.1
2022-12-25T12:04:27.469Z,8.2
2022-12-25T12:06:23.294Z,8.2
2022-12-25T12:08:33.756Z,8.2
2022-12-25T12:14:47.788Z,8.3
2022-12-25T12:16:49.573Z,8.3
2022-12-25T12:18:51.366Z,8.3
2022-12-25T12:21:01.948Z,8.3
2022-12-25T12:25:05.390Z,8.3
2022-12-25T12:41:05.678Z,8.5
2022-12-25T12:43:10.062Z,8.4
2022-12-25T12:45:11.812Z,8.4
2022-12-25T12:47:13.532Z,8.4
2022-12-25T12:49:17.924Z,8.4
2022-12-25T12:51:19.750Z,8.5
2022-12-25T12:53:21.603Z,8.5
2022-12-25T12:55:25.976Z,8.5
2022-12-25T12:57:27.698Z,8.5
2022-12-25T12:59:29.441Z,8.4
2022-12-25T13:03:41.739Z,8.4
2022-12-25T13:05:43.481Z,8.4
2022-12-25T13:36:18.768Z,8.4
2022-12-25T13:38:22.234Z,8.5
2022-12-25T13:40:23.939Z,8.5
2022-12-25T13:42:28.364Z,8.5
2022-12-25T13:44:30.211Z,8.5
2022-12-25T13:46:32.019Z,8.5
2022-12-25T13:53:45.280Z,8.5
2022-12-25T13:55:47.053Z,8.5
2022-12-25T13:57:57.607Z,8.5
2022-12-25T13:59:59.357Z,8.5
2022-12-25T14:02:01.371Z,8.5
2022-12-25T14:04:11.834Z,8.5
2022-12-25T14:06:13.571Z,8.6
2022-12-25T14:08:15.462Z,8.5
2022-12-25T14:15:28.591Z,8.5
2022-12-25T14:17:30.513Z,8.5
2022-12-25T14:22:44.319Z,8.5
2022-12-25T14:24:46.119Z,8.5
2022-12-25T14:28:58.409Z,8.5
2022-12-25T14:31:00.267Z,8.4
2022-12-25T14:33:02.030Z,8.5
2022-12-25T14:35:06.515Z,8.5
2022-12-25T14:37:08.365Z,8.4
2022-12-25T14:39:10.204Z,8.4
2022-12-25T14:48:29.027Z,8.4
2022-12-25T14:50:33.523Z,8.4
2022-12-25T14:54:36.942Z,8.4
2022-12-25T14:56:41.389Z,8.4
2022-12-25T14:58:43.212Z,8.5
2022-12-25T15:00:45.082Z,8.4
2022-12-25T15:02:55.968Z,8.4
2022-12-25T15:04:57.456Z,8.4
2022-12-25T15:06:59.301Z,8.4
2022-12-25T15:09:09.951Z,8.4
2022-12-25T15:13:13.552Z,8.3
2022-12-25T15:22:10.799Z,8.4
2022-12-25T15:24:12.629Z,8.4
2022-12-25T15:26:14.453Z,8.4
2022-12-25T15:37:16.292Z,8.4
2022-12-25T15:39:18.102Z,8.4
2022-12-25T15:41:22.622Z,8.3
2022-12-25T15:45:26.339Z,8.4
2022-12-25T15:47:30.792Z,8.3
2022-12-25T15:51:34.330Z,8.5
2022-12-25T15:53:44.881Z,8.3
2022-12-25T15:55:46.625Z,8.4
2022-12-25T15:57:48.379Z,8.4
2022-12-25T15:59:52.801Z,8.3
2022-12-25T16:01:54.659Z,8.4
2022-12-25T16:03:56.420Z,8.4
2022-12-25T16:13:05.193Z,8.4
2022-12-25T16:24:44.629Z,8.3
2022-12-25T16:26:46.344Z,8.3
2022-12-25T16:28:48.120Z,8.3
2022-12-25T16:30:58.685Z,8.4
2022-12-25T16:35:02.189Z,8.1
2022-12-25T16:46:04.156Z,8.4
2022-12-25T16:48:05.892Z,8.3
2022-12-25T16:50:10.336Z,8.2
2022-12-25T16:56:18.453Z,8.1
2022-12-25T16:58:20.237Z,8.1
2022-12-25T17:00:22.117Z,8
2022-12-25T17:08:40.892Z,8.2
2022-12-25T17:10:42.662Z,8.1
2022-12-25T17:12:44.407Z,8.2
2022-12-25T17:14:54.934Z,8
2022-12-25T17:16:56.685Z,8
2022-12-25T17:18:58.405Z,8.1
2022-12-25T17:23:10.726Z,7.9
2022-12-25T17:25:12.457Z,8.1
2022-12-25T17:30:16.535Z,8
2022-12-25T17:32:18.297Z,7.9
2022-12-25T17:34:20.071Z,8
2022-12-25T17:57:02.597Z,7.9
2022-12-25T17:59:07.033Z,7.8
2022-12-25T18:01:08.739Z,8
2022-12-25T18:03:11.926Z,8
2022-12-25T18:05:14.864Z,7.9
2022-12-25T18:09:18.285Z,7.9
2022-12-25T18:11:22.688Z,8
2022-12-25T18:13:24.431Z,8
2022-12-25T18:15:26.154Z,7.9
2022-12-25T18:17:36.672Z,7.9
2022-12-25T18:26:44.972Z,7.8
2022-12-25T18:30:48.633Z,8
2022-12-25T18:38:03.157Z,7.9
2022-12-25T18:40:05.106Z,8
2022-12-25T18:42:15.652Z,7.8
2022-12-25T18:44:17.376Z,7.9
2022-12-25T18:46:19.132Z,7.9
2022-12-25T18:48:29.617Z,7.9
2022-12-25T18:50:31.409Z,7.9
2022-12-25T18:52:49.657Z,7.9
2022-12-25T19:04:19.105Z,7.9
2022-12-25T19:08:22.620Z,8
2022-12-25T19:21:23.337Z,7.9
2022-12-25T19:25:35.671Z,7.8
2022-12-25T19:27:37.491Z,7.9
2022-12-25T19:29:42.004Z,7.8
2022-12-25T19:33:45.630Z,7.8
2022-12-25T19:35:50.150Z,7.8
2022-12-25T19:37:51.947Z,7.9
2022-12-25T19:39:53.783Z,7.9
2022-12-25T19:41:58.291Z,7.9
2022-12-25T19:44:00.133Z,7.9
2022-12-25T19:46:02.059Z,7.9
2022-12-25T19:48:06.447Z,7.9
2022-12-25T19:50:08.277Z,8
2022-12-25T19:56:16.308Z,8
2022-12-25T20:04:26.299Z,7.8
2022-12-25T20:08:32.535Z,7.9
2022-12-25T20:10:34.254Z,7.9
2022-12-25T20:12:38.665Z,7.8
2022-12-25T20:14:40.390Z,7.9
2022-12-25T20:16:42.264Z,7.8
2022-12-25T20:18:46.662Z,7.9
2022-12-25T20:22:50.282Z,7.9
2022-12-25T20:30:02.885Z,7.9
2022-12-25T20:32:04.783Z,7.9
2022-12-25T20:34:09.225Z,7.8
2022-12-25T20:36:11.040Z,7.8
2022-12-25T20:38:13.001Z,7.9
2022-12-25T20:40:17.393Z,7.8
2022-12-25T20:42:19.230Z,7.9
2022-12-25T20:44:21.042Z,7.9
2022-12-25T20:46:25.679Z,7.8
2022-12-25T20:48:27.261Z,7.8
2022-12-25T20:50:29.001Z,8
2022-12-25T20:52:33.360Z,7.9
2022-12-25T20:56:36.826Z,7.9
2022-12-25T21:01:49.792Z,7.9
2022-12-25T21:03:51.536Z,7.8
2022-12-25T21:05:53.257Z,7.9
2022-12-25T21:07:57.760Z,7.9
2022-12-25T21:09:59.563Z,7.8
2022-12-25T21:12:01.463Z,7.8
2022-12-25T21:14:05.909Z,7.9
2022-12-25T21:16:07.723Z,7.8
2022-12-25T21:18:09.549Z,7.8
2022-12-25T21:20:14.046Z,7.9
2022-12-25T21:22:15.875Z,7.8
2022-12-25T21:24:17.710Z,7.8
2022-12-25T21:26:22.191Z,7.8
2022-12-25T21:28:24.035Z,7.9
2022-12-25T21:30:25.896Z,7.9
2022-12-25T21:32:30.361Z,7.9
2022-12-25T21:34:32.207Z,8
2022-12-25T21:38:38.568Z,7.9
2022-12-25T21:42:42.231Z,8
2022-12-25T21:44:46.751Z,8
2022-12-25T21:46:48.642Z,7.9
2022-12-25T21:48:50.420Z,7.9
2022-12-25T21:50:54.943Z,8.1
2022-12-25T21:52:56.761Z,8.1
2022-12-25T21:54:58.584Z,8
2022-12-25T22:03:58.694Z,8.1
2022-12-25T22:06:00.515Z,8.3
2022-12-25T22:08:02.353Z,8.3
2022-12-25T22:10:06.920Z,8.3
2022-12-25T22:12:08.717Z,8.3
2022-12-25T22:14:10.545Z,8.4
2022-12-25T22:16:21.282Z,8.4
2022-12-25T22:18:22.924Z,8.5
2022-12-25T22:20:24.800Z,8.6
2022-12-25T22:22:29.300Z,8.5
2022-12-25T22:24:31.116Z,8.4
2022-12-25T22:26:32.997Z,8.4
2022-12-25T22:30:39.310Z,8.4
2022-12-25T22:32:41.154Z,8.5
2022-12-25T22:36:47.508Z,8.6
2022-12-25T22:38:49.377Z,8.6
2022-12-25T22:41:00.011Z,8.5
2022-12-25T22:45:03.617Z,8.6
2022-12-25T22:47:08.135Z,8.5
2022-12-25T22:49:09.986Z,8.6
2022-12-25T22:51:11.845Z,8.7
2022-12-25T22:53:22.487Z,8.5
2022-12-25T22:55:24.254Z,8.7
2022-12-25T22:57:26.100Z,8.7
2022-12-25T23:14:57.121Z,8.6
2022-12-25T23:19:00.749Z,8.6
2022-12-25T23:21:05.238Z,8.6
2022-12-25T23:23:07.006Z,8.5
2022-12-25T23:25:08.752Z,8.5
2022-12-25T23:27:13.171Z,8.5
2022-12-25T23:31:16.822Z,8.5
2022-12-25T23:33:21.092Z,8.6
2022-12-25T23:35:22.890Z,8.6
2022-12-25T23:39:29.160Z,8.5
2022-12-25T23:45:37.081Z,8.7
2022-12-25T23:49:40.795Z,8.5
2022-12-25T23:58:05.712Z,8.7
